Time;durP1;ratioP1;P1;durP2;ratioP2;P2;SDS_P1;SDS_P2;PMS_P1;PMS_P2;Temp;Humidity;BMP_temperature;BMP_pressure;BME280_temperature;BME280_humidity;BME280_pressure;Samples;Min_cycle;Max_cycle;Signal;HPM_P1;HPM_P2
2022/04/15 08:28:39;;;;;;;;;37.50;34.50;;;;;;;;2;198062993;198062993;-91
2022/04/15 08:36:54;;;;;;;;;27.00;27.00;;;;;;;;2;261084202;261084202;-90
2022/04/15 08:45:18;;;;;;;;;36.50;34.00;;;;;;;;2;216070328;216070328;-91
2022/04/15 08:53:58;;;;;;;;;41.50;37.00;;;;;;;;2;261080870;261080870;-90
2022/04/15 09:02:35;;;;;;;;;22.50;22.50;;;;;;;;2;216068796;216068796;-90
2022/04/15 09:10:59;;;;;;;;;24.50;24.50;;;;;;;;2;261082261;261082261;-91
2022/04/15 09:19:15;;;;;;;;;21.50;21.50;;;;;;;;2;216066070;216066070;-91
2022/04/15 09:27:34;;;;;;;;;21.50;21.50;;;;;;;;2;261079593;261079593;-92
2022/04/15 09:39:32;;;;;;;;;12.50;12.50;;;;;;;;2;215612213;215612213;-91
2022/04/15 09:56:47;;;;;;;;;;;;;;;;;;;;;
2022/04/15 10:05:12;;;;;;;;;;;;;;;;;;;;;
2022/04/15 10:13:37;;;;;;;;;19.00;19.00;;;;;;;;2;215810531;215810531;-92
2022/04/15 10:22:05;;;;;;;;;;;;;;;;;;;;;
2022/04/15 10:30:20;;;;;;;;;8.00;8.00;;;;;;;;2;215883018;215883018;-91
2022/04/15 10:38:34;;;;;;;;;11.00;11.00;;;;;;;;2;260561274;260561274;-87
2022/04/15 10:46:49;;;;;;;;;12.00;12.00;;;;;;;;2;215283492;215283492;-88
2022/04/15 10:55:04;;;;;;;;;4.50;4.50;;;;;;;;2;260533051;260533051;-88
2022/04/15 11:03:20;;;;;;;;;6.00;6.00;;;;;;;;2;216064692;216064692;-89
2022/04/15 11:11:37;;;;;;;;;8.00;8.00;;;;;;;;2;260363407;260363407;-88
2022/04/15 11:19:51;;;;;;;;;8.50;8.50;;;;;;;;2;215612458;215612458;-88
2022/04/15 11:28:06;;;;;;;;;4.00;4.00;;;;;;;;2;260733145;260733145;-88
2022/04/15 11:36:21;;;;;;;;;6.00;6.00;;;;;;;;2;215697316;215697316;-88
2022/04/15 11:44:36;;;;;;;;;4.50;4.50;;;;;;;;2;260830178;260830178;-88
2022/04/15 11:52:51;;;;;;;;;4.50;4.50;;;;;;;;2;215596029;215596029;-88
2022/04/15 12:01:05;;;;;;;;;4.50;4.50;;;;;;;;2;260591271;260591271;-88
2022/04/15 12:09:20;;;;;;;;;6.50;6.50;;;;;;;;2;215767021;215767021;-88
2022/04/15 12:17:34;;;;;;;;;10.50;10.50;;;;;;;;2;260802171;260802171;-87
2022/04/15 12:26:14;;;;;;;;;4.00;4.00;;;;;;;;2;215452632;215452632;-87
2022/04/15 12:34:30;;;;;;;;;1.00;1.00;;;;;;;;2;260730416;260730416;-88
2022/04/15 12:42:45;;;;;;;;;3.50;3.50;;;;;;;;2;215896315;215896315;-87
2022/04/15 12:51:01;;;;;;;;;1.00;1.00;;;;;;;;2;260718635;260718635;-87
2022/04/15 12:59:16;;;;;;;;;1.50;1.50;;;;;;;;2;216026377;216026377;-87
2022/04/15 13:07:31;;;;;;;;;1.00;1.00;;;;;;;;2;260843573;260843573;-87
2022/04/15 13:15:48;;;;;;;;;3.00;3.00;;;;;;;;2;215631387;215631387;-87
2022/04/15 13:24:12;;;;;;;;;2.00;2.00;;;;;;;;2;260551755;260551755;-89
2022/04/15 13:32:27;;;;;;;;;4.50;4.50;;;;;;;;2;215905334;215905334;-86
2022/04/15 13:40:43;;;;;;;;;1.50;1.50;;;;;;;;2;260941136;260941136;-84
2022/04/15 13:48:59;;;;;;;;;1.00;1.00;;;;;;;;2;215956151;215956151;-86
2022/04/15 13:57:13;;;;;;;;;5.00;5.00;;;;;;;;2;260353912;260353912;-86
2022/04/15 14:05:28;;;;;;;;;1.50;1.50;;;;;;;;2;215545646;215545646;-84
2022/04/15 18:11:01;;;;;;;;;5.00;5.00;;;;;;;;2;261009966;261009966;-81
2022/04/15 18:19:16;;;;;;;;;7.50;7.50;;;;;;;;2;215658124;215658124;-81
2022/04/15 18:27:31;;;;;;;;;8.50;8.50;;;;;;;;2;261005861;261005861;-82
2022/04/15 18:35:47;;;;;;;;;4.50;4.50;;;;;;;;2;216068228;216068228;-82
